Nippon Maru II — JFMC — position and weather

sailwx.info

Track history (hours):
 
Tides and Currents Weather Stations Pressure Air Temp Water Temp Dewpoint Dewpoint Depression Visibility Wind Speed Wind Dir Waves Ship Positions

Nippon Maru II (Japan)

Build in 1984. Trains merchant marine cadets for Japan's National Institute for Sea Training.

Ship's website: http://www.kohkun.go.jp/en/ships/index.html

Last reported at 2019-Oct-22 09:35 UTC. Time now 2019-Oct-22 23:35 UTC.
Position N 34°09' E 134°58'.

Length 110.1 m; beam 13.8 m; draft 110.09 m.

Type: Other ship. MMSI: 431498000.

Date/timePositionNaut miles runAvg speedWind from/ knotsBaromVisibWave heightAir tempDewpointWater temp
2019-Oct-22 09:35N 34°09' E 134°58'2 9.2
2019-Oct-22 09:22N 34°11' E 134°58'4 9.3
2019-Oct-22 08:58N 34°15' E 134°58'4 8.9
2019-Oct-22 08:30N 34°19' E 134°59'4 7.2
2019-Oct-22 08:00N 34°22' E 135°01'4 8.7
2019-Oct-22 07:30N 34°23' E 135°06'4 7.5
2019-Oct-22 06:58N 34°22' E 135°10'0 0.0
2019-Oct-22 05:03N 34°22' E 135°10'0 0.0
2019-Oct-22 04:54N 34°22' E 135°10'0 0.0
2019-Oct-22 04:03N 34°22' E 135°10'0 0.1
2019-Oct-22 03:39N 34°22' E 135°10'0 0.0
2019-Oct-22 03:27N 34°22' E 135°10'0 0.1
2019-Oct-22 02:57N 34°22' E 135°10'0 0.0
2019-Oct-22 02:21N 34°22' E 135°10'0 0.0
2019-Oct-21 23:27N 34°22' E 135°10'0 0.0
2019-Oct-21 22:48N 34°22' E 135°10'0 0.0
2019-Oct-21 22:21N 34°22' E 135°10'0 0.0
2019-Oct-21 21:57N 34°22' E 135°10'0 0.0
2019-Oct-21 21:21N 34°22' E 135°10'0 0.0
2019-Oct-21 20:57N 34°22' E 135°10'0 0.0
2019-Oct-21 19:45N 34°22' E 135°10'0 0.0
2019-Oct-21 19:27N 34°22' E 135°10'0 0.0
2019-Oct-21 18:51N 34°22' E 135°10'0 0.0
2019-Oct-21 18:03N 34°22' E 135°10'0 0.0
2019-Oct-21 17:57N 34°22' E 135°10'0 0.0
2019-Oct-21 17:30N 34°22' E 135°10'0 0.0
2019-Oct-21 17:00N 34°22' E 135°10'0 0.0
2019-Oct-21 16:24N 34°22' E 135°10'0 0.0
2019-Oct-21 15:54N 34°22' E 135°10'0 0.0
2019-Oct-21 15:18N 34°22' E 135°10'0 0.0
2019-Oct-21 13:48N 34°22' E 135°10'0 0.0
2019-Oct-21 13:27N 34°22' E 135°10'0 0.0
2019-Oct-21 12:24N 34°22' E 135°10'0 0.0
2019-Oct-21 11:48N 34°22' E 135°10'0 0.0
2019-Oct-21 11:24N 34°22' E 135°10'0 0.0
2019-Oct-21 11:00N 34°22' E 135°10'0 0.0
2019-Oct-21 10:21N 34°22' E 135°10'0 0.0
2019-Oct-21 09:42N 34°22' E 135°10'0 0.0
2019-Oct-21 09:30N 34°22' E 135°10'0 0.0
2019-Oct-21 08:54N 34°22' E 135°10'0 0.0
2019-Oct-21 08:18N 34°22' E 135°10'0 0.0
2019-Oct-21 07:12N 34°22' E 135°10'0 0.1
2019-Oct-21 06:24N 34°22' E 135°10'0 0.0
2019-Oct-21 04:54N 34°22' E 135°10'0 0.0
2019-Oct-21 04:30N 34°22' E 135°10'0 0.0
2019-Oct-21 03:57N 34°22' E 135°10'0 0.0
2019-Oct-21 03:30N 34°22' E 135°10'0 0.0
2019-Oct-21 03:00N 34°22' E 135°10'0 0.0
2019-Oct-21 02:30N 34°22' E 135°10'0 0.0
2019-Oct-21 01:57N 34°22' E 135°10'0 0.0
2019-Oct-21 01:21N 34°22' E 135°10'0 0.0
2019-Oct-21 00:54N 34°22' E 135°10'0 0.1
2019-Oct-21 00:30N 34°22' E 135°10'0 0.0
2019-Oct-20 23:57N 34°22' E 135°10'0 0.0
2019-Oct-20 23:15N 34°22' E 135°10'0 0.0
2019-Oct-20 23:00N 34°22' E 135°10'0 0.0
2019-Oct-20 20:48N 34°22' E 135°10'0 0.0
2019-Oct-20 20:27N 34°22' E 135°10'0 0.0
2019-Oct-20 19:30N 34°22' E 135°10'0 0.0
2019-Oct-20 18:42N 34°22' E 135°10'0 0.0
2019-Oct-20 18:27N 34°22' E 135°10'0 0.0
2019-Oct-20 18:00N 34°22' E 135°10'0 0.0
2019-Oct-20 17:27N 34°22' E 135°10'0 0.0
2019-Oct-20 17:00N 34°22' E 135°10'0 0.0
2019-Oct-20 16:30N 34°22' E 135°10'0 0.0
2019-Oct-20 16:00N 34°22' E 135°10'0 0.0
2019-Oct-20 15:21N 34°22' E 135°10'0 0.0
2019-Oct-20 13:42N 34°22' E 135°10'0 0.0
2019-Oct-20 13:24N 34°22' E 135°10'0 0.3
2019-Oct-20 13:00N 34°22' E 135°10'3 5.3
2019-Oct-20 12:30N 34°24' E 135°08'5 9.4
2019-Oct-20 12:00N 34°28' E 135°06'5 9.6
2019-Oct-20 11:29N 34°33' E 135°05'510.4
2019-Oct-20 11:00N 34°37' E 135°01'510.0
2019-Oct-20 10:30N 34°36' E 134°55'510.5
2019-Oct-20 10:00N 34°33' E 134°49'4 8.7
2019-Oct-20 09:30N 34°32' E 134°44'5 9.3
2019-Oct-20 08:59N 34°37' E 134°42'8 8.7
2019-Oct-20 08:01N 34°45' E 134°39'0 3.5
2019-Oct-20 08:00N 34°45' E 134°39'2 0.1
2019-Oct-19 01:43N 34°47' E 134°39'0 0.2
2019-Oct-19 01:26N 34°47' E 134°40'5 4.8
2019-Oct-19 00:22N 34°42' E 134°39'3 7.7
2019-Oct-19 00:00N 34°39' E 134°38'4 8.0
2019-Oct-18 23:28N 34°35' E 134°37'3 6.0
2019-Oct-18 23:00N 34°32' E 134°36'3 6.1
2019-Oct-18 22:30N 34°30' E 134°38'3 6.4
2019-Oct-18 22:00N 34°28' E 134°34'4 6.4
2019-Oct-18 21:26N 34°27' E 134°30'5 7.1
2019-Oct-18 20:46N 34°25' E 134°25'  
Track history (hours):
 
Tides and Currents Weather Stations Pressure Air Temp Water Temp Dewpoint Dewpoint Depression Visibility Wind Speed Wind Dir Waves Ship Positions

Nippon Maru II (Japan)

Build in 1984. Trains merchant marine cadets for Japan's National Institute for Sea Training.

Ship's website: http://www.kohkun.go.jp/en/ships/index.html

Last reported at 2019-Oct-22 09:35 UTC. Time now 2019-Oct-22 23:35 UTC.
Position N 34°09' E 134°58'.

Length 110.1 m; beam 13.8 m; draft 110.09 m.

Type: Other ship. MMSI: 431498000.

Date/timePositionNaut miles runAvg speedWind from/ knotsBaromVisibWave heightAir tempDewpointWater temp
2019-Oct-22 09:35N 34°09' E 134°58'2 9.2
2019-Oct-22 09:22N 34°11' E 134°58'4 9.3
2019-Oct-22 08:58N 34°15' E 134°58'4 8.9
2019-Oct-22 08:30N 34°19' E 134°59'4 7.2
2019-Oct-22 08:00N 34°22' E 135°01'4 8.7
2019-Oct-22 07:30N 34°23' E 135°06'4 7.5
2019-Oct-22 06:58N 34°22' E 135°10'0 0.0
2019-Oct-22 05:03N 34°22' E 135°10'0 0.0
2019-Oct-22 04:54N 34°22' E 135°10'0 0.0
2019-Oct-22 04:03N 34°22' E 135°10'0 0.1
2019-Oct-22 03:39N 34°22' E 135°10'0 0.0
2019-Oct-22 03:27N 34°22' E 135°10'0 0.1
2019-Oct-22 02:57N 34°22' E 135°10'0 0.0
2019-Oct-22 02:21N 34°22' E 135°10'0 0.0
2019-Oct-21 23:27N 34°22' E 135°10'0 0.0
2019-Oct-21 22:48N 34°22' E 135°10'0 0.0
2019-Oct-21 22:21N 34°22' E 135°10'0 0.0
2019-Oct-21 21:57N 34°22' E 135°10'0 0.0
2019-Oct-21 21:21N 34°22' E 135°10'0 0.0
2019-Oct-21 20:57N 34°22' E 135°10'0 0.0
2019-Oct-21 19:45N 34°22' E 135°10'0 0.0
2019-Oct-21 19:27N 34°22' E 135°10'0 0.0
2019-Oct-21 18:51N 34°22' E 135°10'0 0.0
2019-Oct-21 18:03N 34°22' E 135°10'0 0.0
2019-Oct-21 17:57N 34°22' E 135°10'0 0.0
2019-Oct-21 17:30N 34°22' E 135°10'0 0.0
2019-Oct-21 17:00N 34°22' E 135°10'0 0.0
2019-Oct-21 16:24N 34°22' E 135°10'0 0.0
2019-Oct-21 15:54N 34°22' E 135°10'0 0.0
2019-Oct-21 15:18N 34°22' E 135°10'0 0.0
2019-Oct-21 13:48N 34°22' E 135°10'0 0.0
2019-Oct-21 13:27N 34°22' E 135°10'0 0.0
2019-Oct-21 12:24N 34°22' E 135°10'0 0.0
2019-Oct-21 11:48N 34°22' E 135°10'0 0.0
2019-Oct-21 11:24N 34°22' E 135°10'0 0.0
2019-Oct-21 11:00N 34°22' E 135°10'0 0.0
2019-Oct-21 10:21N 34°22' E 135°10'0 0.0
2019-Oct-21 09:42N 34°22' E 135°10'0 0.0
2019-Oct-21 09:30N 34°22' E 135°10'0 0.0
2019-Oct-21 08:54N 34°22' E 135°10'0 0.0
2019-Oct-21 08:18N 34°22' E 135°10'0 0.0
2019-Oct-21 07:12N 34°22' E 135°10'0 0.1
2019-Oct-21 06:24N 34°22' E 135°10'0 0.0
2019-Oct-21 04:54N 34°22' E 135°10'0 0.0
2019-Oct-21 04:30N 34°22' E 135°10'0 0.0
2019-Oct-21 03:57N 34°22' E 135°10'0 0.0
2019-Oct-21 03:30N 34°22' E 135°10'0 0.0
2019-Oct-21 03:00N 34°22' E 135°10'0 0.0
2019-Oct-21 02:30N 34°22' E 135°10'0 0.0
2019-Oct-21 01:57N 34°22' E 135°10'0 0.0
2019-Oct-21 01:21N 34°22' E 135°10'0 0.0
2019-Oct-21 00:54N 34°22' E 135°10'0 0.1
2019-Oct-21 00:30N 34°22' E 135°10'0 0.0
2019-Oct-20 23:57N 34°22' E 135°10'0 0.0
2019-Oct-20 23:15N 34°22' E 135°10'0 0.0
2019-Oct-20 23:00N 34°22' E 135°10'0 0.0
2019-Oct-20 20:48N 34°22' E 135°10'0 0.0
2019-Oct-20 20:27N 34°22' E 135°10'0 0.0
2019-Oct-20 19:30N 34°22' E 135°10'0 0.0
2019-Oct-20 18:42N 34°22' E 135°10'0 0.0
2019-Oct-20 18:27N 34°22' E 135°10'0 0.0
2019-Oct-20 18:00N 34°22' E 135°10'0 0.0
2019-Oct-20 17:27N 34°22' E 135°10'0 0.0
2019-Oct-20 17:00N 34°22' E 135°10'0 0.0
2019-Oct-20 16:30N 34°22' E 135°10'0 0.0
2019-Oct-20 16:00N 34°22' E 135°10'0 0.0
2019-Oct-20 15:21N 34°22' E 135°10'0 0.0
2019-Oct-20 13:42N 34°22' E 135°10'0 0.0
2019-Oct-20 13:24N 34°22' E 135°10'0 0.3
2019-Oct-20 13:00N 34°22' E 135°10'3 5.3
2019-Oct-20 12:30N 34°24' E 135°08'5 9.4
2019-Oct-20 12:00N 34°28' E 135°06'5 9.6
2019-Oct-20 11:29N 34°33' E 135°05'510.4
2019-Oct-20 11:00N 34°37' E 135°01'510.0
2019-Oct-20 10:30N 34°36' E 134°55'510.5
2019-Oct-20 10:00N 34°33' E 134°49'4 8.7
2019-Oct-20 09:30N 34°32' E 134°44'5 9.3
2019-Oct-20 08:59N 34°37' E 134°42'8 8.7
2019-Oct-20 08:01N 34°45' E 134°39'0 3.5
2019-Oct-20 08:00N 34°45' E 134°39'2 0.1
2019-Oct-19 01:43N 34°47' E 134°39'0 0.2
2019-Oct-19 01:26N 34°47' E 134°40'5 4.8
2019-Oct-19 00:22N 34°42' E 134°39'3 7.7
2019-Oct-19 00:00N 34°39' E 134°38'4 8.0
2019-Oct-18 23:28N 34°35' E 134°37'3 6.0
2019-Oct-18 23:00N 34°32' E 134°36'3 6.1
2019-Oct-18 22:30N 34°30' E 134°38'3 6.4
2019-Oct-18 22:00N 34°28' E 134°34'4 6.4
2019-Oct-18 21:26N 34°27' E 134°30'5 7.1
2019-Oct-18 20:46N 34°25' E 134°25'  

Dump ship's entire track history